createdAt,value
2018-08-04T00:01:46.882Z,26.60
2018-08-04T00:04:16.175Z,26.50
2018-08-04T00:06:45.397Z,26.40
2018-08-04T00:09:14.596Z,26.40
2018-08-04T00:11:43.537Z,26.50
2018-08-04T00:14:12.800Z,26.50
2018-08-04T00:16:41.863Z,26.40
2018-08-04T00:19:10.804Z,26.20
2018-08-04T00:21:39.870Z,26.40
2018-08-04T00:24:08.870Z,26.30
2018-08-04T00:26:37.903Z,26.30
2018-08-04T00:29:06.898Z,26.10
2018-08-04T00:31:36.108Z,26.10
2018-08-04T00:34:05.287Z,26.10
2018-08-04T00:36:34.359Z,26.10
2018-08-04T00:39:03.539Z,26.10
2018-08-04T00:41:32.571Z,26.00
2018-08-04T00:44:01.621Z,26.00
2018-08-04T00:46:30.836Z,26.10
2018-08-04T00:48:59.774Z,26.10
2018-08-04T00:51:28.776Z,26.00
2018-08-04T00:53:57.732Z,26.10
2018-08-04T00:56:26.662Z,26.10
2018-08-04T00:58:55.665Z,26.10
2018-08-04T01:01:24.713Z,26.00
2018-08-04T01:03:53.759Z,26.00
2018-08-04T01:06:22.713Z,25.90
2018-08-04T01:08:51.703Z,25.90
2018-08-04T01:11:20.823Z,25.90
2018-08-04T01:13:49.785Z,25.80
2018-08-04T01:16:18.832Z,25.80
2018-08-04T01:18:47.902Z,25.70
2018-08-04T01:21:16.846Z,25.70
2018-08-04T01:23:45.987Z,25.60
2018-08-04T01:26:15.061Z,25.60
2018-08-04T01:28:44.070Z,25.50
2018-08-04T01:31:13.074Z,25.50
2018-08-04T01:33:41.991Z,25.50
2018-08-04T01:36:11.029Z,25.40
2018-08-04T01:38:39.982Z,25.40
2018-08-04T01:41:08.988Z,25.40
2018-08-04T01:43:37.954Z,25.30
2018-08-04T01:48:35.446Z,25.30
2018-08-04T01:51:04.513Z,25.30
2018-08-04T01:53:33.556Z,25.20
2018-08-04T01:56:02.512Z,25.20
2018-08-04T01:58:31.587Z,25.20
2018-08-04T02:01:00.564Z,25.20
2018-08-04T02:03:29.595Z,25.10
2018-08-04T02:05:58.677Z,25.10
2018-08-04T02:08:27.660Z,25.00
2018-08-04T02:10:56.555Z,25.10
2018-08-04T02:13:25.653Z,25.00
2018-08-04T02:15:54.618Z,24.90
2018-08-04T02:18:23.635Z,24.90
2018-08-04T02:20:52.584Z,24.90
2018-08-04T02:23:21.654Z,24.90
2018-08-04T02:25:50.724Z,24.80
2018-08-04T02:28:19.921Z,24.80
2018-08-04T02:30:48.849Z,24.70
2018-08-04T02:33:17.724Z,24.70
2018-08-04T02:35:46.788Z,24.70
2018-08-04T02:38:15.909Z,24.60
2018-08-04T02:40:45.060Z,24.70
2018-08-04T02:43:14.154Z,24.70
2018-08-04T02:45:43.116Z,24.60
2018-08-04T02:48:12.403Z,24.60
2018-08-04T02:50:41.819Z,24.60
2018-08-04T02:53:10.979Z,24.60
2018-08-04T02:55:40.018Z,24.60
2018-08-04T02:58:09.203Z,24.60
2018-08-04T03:00:38.360Z,24.50
2018-08-04T03:03:07.541Z,24.60
2018-08-04T03:05:36.628Z,24.50
2018-08-04T03:08:06.056Z,24.50
2018-08-04T03:10:35.218Z,24.40
2018-08-04T03:13:04.377Z,24.40
2018-08-04T03:15:33.442Z,24.30
2018-08-04T03:18:03.532Z,24.30
2018-08-04T03:20:32.684Z,24.40
2018-08-04T03:23:01.942Z,24.30
2018-08-04T03:25:31.126Z,24.30
2018-08-04T03:28:00.162Z,24.30
2018-08-04T03:30:29.191Z,24.10
2018-08-04T03:32:58.200Z,24.20
2018-08-04T03:35:27.104Z,24.10
2018-08-04T03:37:56.253Z,24.10
2018-08-04T03:40:25.341Z,24.10
2018-08-04T03:42:54.373Z,24.00
2018-08-04T03:45:23.480Z,24.10
2018-08-04T03:47:52.477Z,24.10
2018-08-04T03:50:21.601Z,24.10
2018-08-04T03:52:50.717Z,24.00
2018-08-04T03:55:19.847Z,24.00
2018-08-04T03:57:49.054Z,24.00
2018-08-04T04:00:18.703Z,23.90
2018-08-04T04:02:47.821Z,23.90
2018-08-04T04:05:16.973Z,24.00
2018-08-04T04:07:45.969Z,24.00
2018-08-04T04:10:15.064Z,23.90
2018-08-04T04:12:44.128Z,24.00
2018-08-04T04:15:13.297Z,23.90
2018-08-04T04:17:46.538Z,24.00
2018-08-04T04:20:16.750Z,24.00
2018-08-04T04:22:45.842Z,24.10
2018-08-04T04:25:14.900Z,23.90
2018-08-04T04:27:44.354Z,24.10
2018-08-04T04:30:14.865Z,24.00
2018-08-04T04:32:43.987Z,24.10
2018-08-04T04:37:41.797Z,24.10
2018-08-04T04:40:10.843Z,24.10
2018-08-04T04:42:40.990Z,24.20
2018-08-04T04:45:10.055Z,24.10
2018-08-04T04:47:39.434Z,24.00
2018-08-04T04:50:08.541Z,23.90
2018-08-04T04:52:37.565Z,24.00
2018-08-04T04:55:06.919Z,24.10
2018-08-04T04:57:36.061Z,24.20
2018-08-04T05:02:34.213Z,24.20
2018-08-04T05:05:03.306Z,24.30
2018-08-04T05:07:32.502Z,24.30
2018-08-04T05:10:03.389Z,24.40
2018-08-04T05:12:32.514Z,24.50
2018-08-04T05:15:04.244Z,24.60
2018-08-04T05:17:34.386Z,24.70
2018-08-04T05:20:03.722Z,24.70
2018-08-04T05:22:33.525Z,24.80
2018-08-04T05:25:03.885Z,24.90
2018-08-04T05:27:32.899Z,24.90
2018-08-04T05:30:01.991Z,25.00
2018-08-04T05:32:31.069Z,25.10
2018-08-04T05:34:59.971Z,25.10
2018-08-04T05:37:29.001Z,25.20
2018-08-04T05:39:58.037Z,25.30
2018-08-04T05:42:27.177Z,25.30
2018-08-04T05:44:56.277Z,25.30
2018-08-04T05:47:25.424Z,25.40
2018-08-04T05:49:54.387Z,25.50
2018-08-04T05:52:23.335Z,25.60
2018-08-04T05:54:52.619Z,25.70
2018-08-04T05:57:21.767Z,25.70
2018-08-04T05:59:50.700Z,25.80
2018-08-04T06:02:19.711Z,25.90
2018-08-04T06:04:48.988Z,26.00
2018-08-04T06:07:17.976Z,26.00
2018-08-04T06:09:46.940Z,26.10
2018-08-04T06:12:16.163Z,26.20
2018-08-04T06:14:45.409Z,26.30
2018-08-04T06:17:14.716Z,26.40
2018-08-04T06:19:43.706Z,26.40
2018-08-04T06:22:12.891Z,26.50
2018-08-04T06:24:41.795Z,26.70
2018-08-04T06:27:11.038Z,26.70
2018-08-04T06:29:40.205Z,26.80
2018-08-04T06:32:09.684Z,27.00
2018-08-04T06:37:07.838Z,27.50
2018-08-04T06:39:37.302Z,27.70
2018-08-04T06:42:06.597Z,27.90
2018-08-04T06:44:35.724Z,28.20
2018-08-04T06:47:05.170Z,28.50
2018-08-04T06:49:34.385Z,28.80
2018-08-04T06:52:03.487Z,29.10
2018-08-04T06:54:32.669Z,29.50
2018-08-04T06:57:01.991Z,29.90
2018-08-04T06:59:31.265Z,30.30
2018-08-04T07:02:00.230Z,30.70
2018-08-04T07:04:29.330Z,30.90
2018-08-04T07:06:58.349Z,31.10
2018-08-04T07:09:27.444Z,31.10
2018-08-04T07:11:56.432Z,31.10
2018-08-04T07:14:25.440Z,30.80
2018-08-04T07:16:54.544Z,30.70
2018-08-04T07:19:23.562Z,30.60
2018-08-04T07:21:52.820Z,30.50
2018-08-04T07:24:22.398Z,30.40
2018-08-04T07:26:51.457Z,30.30
2018-08-04T07:29:20.498Z,30.30
2018-08-04T07:31:49.827Z,30.30
2018-08-04T07:34:18.939Z,30.50
2018-08-04T07:36:48.110Z,30.60
2018-08-04T07:39:17.397Z,30.80
2018-08-04T07:41:46.373Z,31.00
2018-08-04T07:44:15.337Z,31.10
2018-08-04T07:46:44.432Z,31.20
2018-08-04T07:49:13.523Z,31.20
2018-08-04T07:51:42.575Z,31.20
2018-08-04T07:54:11.675Z,31.20
2018-08-04T07:56:40.809Z,31.20
2018-08-04T07:59:10.041Z,31.30
2018-08-04T08:01:39.514Z,31.60
2018-08-04T08:04:08.609Z,31.80
2018-08-04T08:06:41.773Z,32.00
2018-08-04T08:09:10.895Z,32.30
2018-08-04T08:11:40.024Z,32.70
2018-08-04T08:14:09.196Z,33.50
2018-08-04T08:16:38.553Z,34.10
2018-08-04T08:19:07.799Z,34.70
2018-08-04T08:21:36.945Z,35.60
2018-08-04T08:24:06.014Z,36.50
2018-08-04T08:26:35.205Z,37.30
2018-08-04T08:29:04.511Z,38.10
2018-08-04T08:31:33.601Z,39.10
2018-08-04T08:34:02.679Z,40.00
2018-08-04T08:36:31.721Z,40.30
2018-08-04T08:41:29.486Z,39.70
2018-08-04T08:43:58.579Z,39.30
2018-08-04T08:46:27.650Z,38.70
2018-08-04T08:48:57.759Z,38.00
2018-08-04T08:51:26.779Z,37.50
2018-08-04T08:53:55.898Z,37.10
2018-08-04T08:56:26.060Z,36.70
2018-08-04T08:58:55.018Z,36.30
2018-08-04T09:03:54.112Z,35.60
2018-08-04T09:06:23.385Z,35.20
2018-08-04T09:11:21.112Z,35.50
2018-08-04T09:13:50.212Z,35.50
2018-08-04T09:16:19.292Z,35.50
2018-08-04T09:18:48.808Z,35.50
2018-08-04T09:21:17.739Z,35.60
2018-08-04T09:23:46.576Z,36.00
2018-08-04T09:26:15.475Z,36.40
2018-08-04T09:28:44.385Z,36.50
2018-08-04T09:31:13.285Z,36.50
2018-08-04T09:33:42.120Z,36.20
2018-08-04T09:36:11.118Z,36.00
2018-08-04T09:38:40.081Z,36.20
2018-08-04T09:41:09.145Z,36.70
2018-08-04T09:48:35.602Z,36.90
2018-08-04T09:51:04.688Z,37.50
2018-08-04T09:53:33.705Z,38.70
2018-08-04T09:56:02.551Z,40.00
2018-08-04T09:58:31.455Z,40.90
2018-08-04T10:01:05.427Z,41.00
2018-08-04T10:03:34.296Z,41.10
2018-08-04T10:08:56.452Z,40.60
2018-08-04T10:11:51.504Z,41.50
2018-08-04T10:14:21.483Z,41.60
2018-08-04T10:16:52.278Z,41.20
2018-08-04T10:19:21.014Z,41.30
2018-08-04T10:21:50.734Z,41.20
2018-08-04T10:24:19.768Z,41.70
2018-08-04T10:26:49.906Z,41.60
2018-08-04T10:29:18.948Z,41.30
2018-08-04T10:31:47.689Z,42.00
2018-08-04T10:34:16.683Z,42.20
2018-08-04T10:36:51.574Z,41.90
2018-08-04T10:39:20.682Z,41.80
2018-08-04T10:41:49.677Z,41.80
2018-08-04T10:44:18.350Z,41.70
2018-08-04T10:46:47.493Z,42.10
2018-08-04T10:49:16.396Z,41.80
2018-08-04T10:51:45.386Z,41.10
2018-08-04T10:54:14.408Z,41.20
2018-08-04T10:56:43.245Z,41.10
2018-08-04T10:59:12.158Z,41.10
2018-08-04T11:01:40.956Z,41.00
2018-08-04T11:04:09.683Z,40.10
2018-08-04T11:06:38.453Z,39.80
2018-08-04T11:09:09.829Z,39.60
2018-08-04T11:11:38.566Z,39.40
2018-08-04T11:14:09.086Z,39.10
2018-08-04T11:16:38.531Z,39.10
2018-08-04T11:19:07.454Z,39.10
2018-08-04T11:21:36.507Z,38.90
2018-08-04T11:24:05.607Z,37.70
2018-08-04T11:26:35.223Z,37.40
2018-08-04T11:29:04.489Z,36.90
2018-08-04T11:31:33.691Z,36.60
2018-08-04T11:34:02.504Z,36.60
2018-08-04T11:36:31.471Z,36.50
2018-08-04T11:39:00.219Z,36.40
2018-08-04T11:41:30.063Z,35.90
2018-08-04T11:43:58.788Z,35.90
2018-08-04T11:46:27.510Z,35.70
2018-08-04T11:48:56.357Z,35.60
2018-08-04T11:51:25.242Z,35.50
2018-08-04T11:53:53.990Z,35.00
2018-08-04T11:56:22.833Z,34.70
2018-08-04T11:58:51.550Z,34.60
2018-08-04T12:01:20.256Z,34.40
2018-08-04T12:03:49.199Z,34.40
2018-08-04T12:06:17.902Z,34.30
2018-08-04T12:08:47.787Z,34.40
2018-08-04T12:11:16.597Z,34.20
2018-08-04T12:13:45.235Z,34.20
2018-08-04T12:16:14.069Z,33.90
2018-08-04T12:18:42.782Z,33.90
2018-08-04T12:21:11.589Z,33.80
2018-08-04T12:23:40.261Z,33.70
2018-08-04T12:26:09.035Z,33.70
2018-08-04T12:28:37.794Z,33.70
2018-08-04T12:31:06.555Z,33.70
2018-08-04T12:33:35.189Z,33.70
2018-08-04T12:36:03.987Z,33.50
2018-08-04T12:38:32.696Z,33.40
2018-08-04T12:41:01.443Z,33.30
2018-08-04T12:43:30.067Z,33.20
2018-08-04T12:45:59.683Z,33.20
2018-08-04T12:48:30.173Z,33.20
2018-08-04T12:51:00.803Z,33.30
2018-08-04T12:53:29.574Z,33.40
2018-08-04T12:55:59.106Z,33.20
2018-08-04T12:58:27.739Z,33.30
2018-08-04T13:00:56.461Z,33.30
2018-08-04T13:03:25.075Z,33.30
2018-08-04T13:05:53.744Z,33.10
2018-08-04T13:08:27.434Z,32.90
2018-08-04T13:10:56.127Z,33.00
2018-08-04T13:13:24.790Z,33.00
2018-08-04T13:15:53.440Z,33.10
2018-08-04T13:18:22.090Z,33.20
2018-08-04T13:20:51.060Z,33.20
2018-08-04T13:23:19.755Z,33.20
2018-08-04T13:25:48.732Z,33.10
2018-08-04T13:28:17.566Z,33.30
2018-08-04T13:30:46.504Z,33.30
2018-08-04T13:33:15.304Z,33.20
2018-08-04T13:35:44.077Z,33.20
2018-08-04T13:38:12.758Z,33.30
2018-08-04T13:40:41.640Z,33.20
2018-08-04T13:43:10.419Z,33.20
2018-08-04T13:45:39.213Z,33.20
2018-08-04T13:48:08.045Z,33.10
2018-08-04T13:50:36.880Z,32.90
2018-08-04T13:53:05.582Z,32.80
2018-08-04T13:55:34.296Z,32.70
2018-08-04T13:58:04.129Z,32.80
2018-08-04T14:00:32.931Z,32.80
2018-08-04T14:03:01.658Z,32.90
2018-08-04T14:05:30.571Z,33.00
2018-08-04T14:07:59.284Z,33.00
2018-08-04T14:10:28.052Z,33.10
2018-08-04T14:12:56.816Z,33.20
2018-08-04T14:15:25.556Z,33.20
2018-08-04T14:17:54.194Z,33.20
2018-08-04T14:20:22.938Z,33.20
2018-08-04T14:22:51.653Z,33.20
2018-08-04T14:25:20.367Z,33.20
2018-08-04T14:27:49.059Z,33.30
2018-08-04T14:30:17.705Z,33.40
2018-08-04T14:32:46.663Z,33.40
2018-08-04T14:35:15.504Z,33.40
2018-08-04T14:37:44.308Z,33.40
2018-08-04T14:40:13.001Z,33.50
2018-08-04T14:42:41.835Z,33.40
2018-08-04T14:45:10.471Z,33.40
2018-08-04T14:47:39.312Z,33.30
2018-08-04T14:50:08.114Z,33.40
2018-08-04T14:52:36.722Z,33.30
2018-08-04T14:55:05.997Z,33.10
2018-08-04T14:57:34.696Z,33.00
2018-08-04T15:00:03.600Z,32.90
2018-08-04T15:02:32.274Z,32.90
2018-08-04T15:05:01.270Z,32.90
2018-08-04T15:07:29.923Z,33.00
2018-08-04T15:09:58.595Z,32.90
2018-08-04T15:12:28.324Z,32.90
2018-08-04T15:14:57.015Z,32.90
2018-08-04T15:17:25.715Z,33.00
2018-08-04T15:19:54.457Z,32.90
2018-08-04T15:22:23.169Z,32.90
2018-08-04T15:24:51.892Z,33.00
2018-08-04T15:27:20.604Z,32.90
2018-08-04T15:29:49.249Z,32.90
2018-08-04T15:32:17.954Z,32.90
2018-08-04T15:34:46.653Z,32.90
2018-08-04T15:37:15.301Z,33.00
2018-08-04T15:39:44.020Z,33.00
2018-08-04T15:42:13.000Z,33.00
2018-08-04T15:44:41.668Z,32.90
2018-08-04T15:47:10.403Z,33.00
2018-08-04T15:49:39.207Z,33.00
2018-08-04T15:52:07.934Z,33.10
2018-08-04T15:54:36.652Z,33.10
2018-08-04T15:57:05.374Z,33.10
2018-08-04T15:59:34.112Z,33.10
2018-08-04T16:02:02.844Z,33.10
2018-08-04T16:04:31.474Z,33.10
2018-08-04T16:07:00.148Z,33.10
2018-08-04T16:09:28.829Z,33.10
2018-08-04T16:11:57.516Z,33.10
2018-08-04T16:14:27.192Z,32.90
2018-08-04T16:16:56.835Z,32.90
2018-08-04T16:19:25.597Z,32.90
2018-08-04T16:21:54.308Z,32.80
2018-08-04T16:24:23.074Z,32.80
2018-08-04T16:26:51.740Z,32.90
2018-08-04T16:29:20.387Z,33.00
2018-08-04T16:31:49.110Z,33.00
2018-08-04T16:34:18.842Z,33.00
2018-08-04T16:36:47.656Z,33.00
2018-08-04T16:39:16.540Z,33.00
2018-08-04T16:41:45.403Z,32.90
2018-08-04T16:44:14.116Z,32.70
2018-08-04T16:46:42.761Z,32.70
2018-08-04T16:49:11.524Z,32.60
2018-08-04T16:51:40.264Z,32.40
2018-08-04T16:54:09.150Z,32.30
2018-08-04T16:56:37.984Z,32.30
2018-08-04T16:59:06.785Z,32.20
2018-08-04T17:01:35.588Z,32.20
2018-08-04T17:04:04.367Z,32.20
2018-08-04T17:06:33.057Z,32.20
2018-08-04T17:09:01.720Z,32.20
2018-08-04T17:11:30.391Z,32.00
2018-08-04T17:13:59.213Z,32.20
2018-08-04T17:16:27.962Z,32.20
2018-08-04T17:18:56.611Z,32.20
2018-08-04T17:21:25.391Z,32.20
2018-08-04T17:23:54.183Z,32.20
2018-08-04T17:26:22.860Z,32.10
2018-08-04T17:28:51.695Z,31.70
2018-08-04T17:31:20.408Z,31.60
2018-08-04T17:33:49.132Z,31.20
2018-08-04T17:36:18.032Z,30.90
2018-08-04T17:38:46.744Z,30.70
2018-08-04T17:41:15.435Z,30.70
2018-08-04T17:43:45.133Z,30.50
2018-08-04T17:46:13.796Z,30.40
2018-08-04T17:48:42.469Z,30.30
2018-08-04T17:51:11.130Z,30.10
2018-08-04T17:53:39.855Z,30.30
2018-08-04T17:56:08.596Z,30.30
2018-08-04T17:58:37.470Z,30.20
2018-08-04T18:01:06.237Z,30.10
2018-08-04T18:03:34.915Z,30.10
2018-08-04T18:06:03.929Z,30.20
2018-08-04T18:08:32.706Z,30.00
2018-08-04T18:11:01.452Z,30.10
2018-08-04T18:13:30.130Z,30.00
2018-08-04T18:15:59.981Z,29.80
2018-08-04T18:18:28.720Z,29.80
2018-08-04T18:20:57.536Z,29.80
2018-08-04T18:23:26.284Z,29.80
2018-08-04T18:25:55.146Z,29.80
2018-08-04T18:28:23.895Z,29.80
2018-08-04T18:30:52.629Z,29.80
2018-08-04T18:33:21.326Z,29.70
2018-08-04T18:35:50.017Z,29.70
2018-08-04T18:38:18.788Z,29.70
2018-08-04T18:40:47.703Z,29.80
2018-08-04T18:43:16.634Z,29.80
2018-08-04T18:45:45.282Z,29.80
2018-08-04T18:48:14.083Z,29.70
2018-08-04T18:50:42.783Z,29.60
2018-08-04T18:53:11.553Z,29.60
2018-08-04T18:55:40.243Z,29.70
2018-08-04T18:58:09.206Z,29.70
2018-08-04T19:00:37.934Z,29.60
2018-08-04T19:03:06.788Z,29.70
2018-08-04T19:05:35.501Z,29.80
2018-08-04T19:08:04.144Z,29.90
2018-08-04T19:10:32.970Z,29.80
2018-08-04T19:13:01.818Z,29.70
2018-08-04T19:15:30.556Z,29.80
2018-08-04T19:17:59.228Z,29.90
2018-08-04T19:20:27.916Z,29.80
2018-08-04T19:22:56.691Z,29.70
2018-08-04T19:25:26.664Z,29.70
2018-08-04T19:27:58.261Z,29.80
2018-08-04T19:30:45.030Z,29.70
2018-08-04T19:33:16.500Z,29.70
2018-08-04T19:35:45.602Z,29.80
2018-08-04T19:38:14.638Z,29.80
2018-08-04T19:40:43.813Z,29.70
2018-08-04T19:43:12.556Z,29.60
2018-08-04T19:45:41.275Z,29.70
2018-08-04T19:48:09.959Z,29.70
2018-08-04T19:50:38.683Z,29.60
2018-08-04T19:53:07.618Z,29.50
2018-08-04T19:55:36.478Z,29.50
2018-08-04T19:58:05.220Z,29.20
2018-08-04T20:00:33.976Z,29.20
2018-08-04T20:03:02.835Z,29.10
2018-08-04T20:05:33.504Z,29.00
2018-08-04T20:08:02.147Z,28.90
2018-08-04T20:10:30.853Z,28.70
2018-08-04T20:12:59.693Z,28.60
2018-08-04T20:15:28.334Z,28.50
2018-08-04T20:17:59.089Z,28.40
2018-08-04T20:20:27.957Z,28.50
2018-08-04T20:22:56.678Z,28.40
2018-08-04T20:25:27.935Z,28.40
2018-08-04T20:27:59.694Z,28.30
2018-08-04T20:30:28.595Z,28.40
2018-08-04T20:32:58.304Z,28.30
2018-08-04T20:35:27.048Z,28.30
2018-08-04T20:37:55.783Z,28.20
2018-08-04T20:40:24.523Z,28.20
2018-08-04T20:42:53.195Z,28.00
2018-08-04T20:45:22.862Z,27.90
2018-08-04T20:47:51.793Z,28.00
2018-08-04T20:50:21.516Z,27.90
2018-08-04T20:52:52.679Z,27.80
2018-08-04T20:55:21.537Z,27.90
2018-08-04T20:57:50.240Z,27.90
2018-08-04T21:00:18.855Z,27.80
2018-08-04T21:02:47.762Z,27.80
2018-08-04T21:05:16.354Z,27.80
2018-08-04T21:07:46.165Z,27.70
2018-08-04T21:10:14.877Z,27.60
2018-08-04T21:12:43.505Z,27.60
2018-08-04T21:15:12.167Z,27.70
2018-08-04T21:17:40.858Z,27.80
2018-08-04T21:20:09.526Z,27.80
2018-08-04T21:22:38.222Z,27.80
2018-08-04T21:25:07.125Z,27.80
2018-08-04T21:27:35.740Z,27.80
2018-08-04T21:30:05.118Z,27.90
2018-08-04T21:32:33.834Z,27.80
2018-08-04T21:35:02.532Z,27.70
2018-08-04T21:37:31.268Z,27.80
2018-08-04T21:39:59.961Z,27.80
2018-08-04T21:42:28.699Z,27.80
2018-08-04T21:44:57.407Z,28.00
2018-08-04T21:47:26.147Z,28.00
2018-08-04T21:49:55.949Z,27.90
2018-08-04T21:52:25.814Z,27.90
2018-08-04T21:54:54.523Z,27.90
2018-08-04T21:57:23.391Z,27.90
2018-08-04T21:59:52.153Z,27.90
2018-08-04T22:02:20.891Z,27.90
2018-08-04T22:04:49.731Z,27.90
2018-08-04T22:07:54.648Z,27.90
2018-08-04T22:10:23.455Z,27.90
2018-08-04T22:12:52.218Z,27.80
2018-08-04T22:15:20.921Z,27.80
2018-08-04T22:17:49.666Z,27.80
2018-08-04T22:20:19.610Z,27.80
2018-08-04T22:22:48.534Z,27.90
2018-08-04T22:25:18.498Z,27.80
2018-08-04T22:27:47.202Z,27.80
2018-08-04T22:30:17.064Z,27.70
2018-08-04T22:32:47.929Z,27.70
2018-08-04T22:35:16.891Z,27.80
2018-08-04T22:37:45.839Z,27.70
2018-08-04T22:40:15.340Z,27.70
2018-08-04T22:42:44.515Z,27.70
2018-08-04T22:46:12.359Z,27.70
2018-08-04T22:48:41.873Z,27.60
2018-08-04T22:51:10.677Z,27.30
2018-08-04T22:53:39.480Z,27.10
2018-08-04T22:56:08.261Z,27.00
2018-08-04T22:58:37.135Z,26.90
2018-08-04T23:01:05.940Z,26.90
2018-08-04T23:03:34.633Z,26.80
2018-08-04T23:06:04.973Z,26.90
2018-08-04T23:08:33.562Z,26.90
2018-08-04T23:11:02.311Z,26.90
2018-08-04T23:13:32.113Z,26.90
2018-08-04T23:16:00.916Z,26.80
2018-08-04T23:18:29.676Z,26.90
2018-08-04T23:20:58.336Z,26.90
2018-08-04T23:23:26.958Z,26.90
2018-08-04T23:25:55.579Z,26.80
2018-08-04T23:28:24.294Z,26.70
2018-08-04T23:30:52.915Z,26.80
2018-08-04T23:33:21.583Z,26.70
2018-08-04T23:35:50.260Z,26.80
2018-08-04T23:38:18.913Z,26.70
2018-08-04T23:40:47.768Z,26.70
2018-08-04T23:43:16.435Z,26.70
2018-08-04T23:45:45.112Z,26.70
2018-08-04T23:48:13.704Z,26.60
2018-08-04T23:50:42.476Z,26.70
2018-08-04T23:53:11.110Z,26.70
2018-08-04T23:55:39.762Z,26.70
2018-08-04T23:58:08.566Z,26.40
